sensor_id;sensor_type;location;lat;lon;timestamp;P1;durP1;ratioP1;P2;durP2;ratioP2
4214;SDS011;2121;48.062;7.850;2024-03-06T00:01:53;3.60;;;3.23;;
4214;SDS011;2121;48.062;7.850;2024-03-06T00:04:19;9.80;;;3.70;;
4214;SDS011;2121;48.062;7.850;2024-03-06T00:06:44;5.13;;;2.67;;
4214;SDS011;2121;48.062;7.850;2024-03-06T00:09:10;2.40;;;2.13;;
4214;SDS011;2121;48.062;7.850;2024-03-06T00:11:36;3.17;;;2.60;;
4214;SDS011;2121;48.062;7.850;2024-03-06T00:14:02;3.03;;;2.73;;
4214;SDS011;2121;48.062;7.850;2024-03-06T00:16:30;4.63;;;2.90;;
4214;SDS011;2121;48.062;7.850;2024-03-06T00:18:59;4.60;;;2.60;;
4214;SDS011;2121;48.062;7.850;2024-03-06T00:21:24;2.47;;;2.27;;
4214;SDS011;2121;48.062;7.850;2024-03-06T00:23:50;2.07;;;1.93;;
4214;SDS011;2121;48.062;7.850;2024-03-06T00:26:16;2.63;;;2.53;;
4214;SDS011;2121;48.062;7.850;2024-03-06T00:28:41;2.50;;;2.30;;
4214;SDS011;2121;48.062;7.850;2024-03-06T00:31:09;2.83;;;2.63;;
4214;SDS011;2121;48.062;7.850;2024-03-06T00:33:34;4.07;;;3.70;;
4214;SDS011;2121;48.062;7.850;2024-03-06T00:36:00;4.67;;;2.60;;
4214;SDS011;2121;48.062;7.850;2024-03-06T00:38:25;2.50;;;2.37;;
4214;SDS011;2121;48.062;7.850;2024-03-06T00:40:51;2.50;;;2.30;;
4214;SDS011;2121;48.062;7.850;2024-03-06T00:43:17;5.93;;;2.70;;
4214;SDS011;2121;48.062;7.850;2024-03-06T00:45:43;4.63;;;3.67;;
4214;SDS011;2121;48.062;7.850;2024-03-06T00:48:08;3.67;;;2.33;;
4214;SDS011;2121;48.062;7.850;2024-03-06T00:50:34;6.80;;;2.90;;
4214;SDS011;2121;48.062;7.850;2024-03-06T00:53:00;2.77;;;2.57;;
4214;SDS011;2121;48.062;7.850;2024-03-06T00:55:26;3.27;;;2.10;;
4214;SDS011;2121;48.062;7.850;2024-03-06T00:57:51;2.97;;;2.70;;
4214;SDS011;2121;48.062;7.850;2024-03-06T01:00:17;5.93;;;2.77;;
4214;SDS011;2121;48.062;7.850;2024-03-06T01:02:44;2.90;;;2.20;;
4214;SDS011;2121;48.062;7.850;2024-03-06T01:05:10;3.53;;;2.60;;
4214;SDS011;2121;48.062;7.850;2024-03-06T01:07:39;2.83;;;2.30;;
4214;SDS011;2121;48.062;7.850;2024-03-06T01:10:05;3.80;;;2.60;;
4214;SDS011;2121;48.062;7.850;2024-03-06T01:12:33;2.93;;;2.70;;
4214;SDS011;2121;48.062;7.850;2024-03-06T01:14:59;3.67;;;2.33;;
4214;SDS011;2121;48.062;7.850;2024-03-06T01:17:25;2.27;;;2.17;;
4214;SDS011;2121;48.062;7.850;2024-03-06T01:19:51;3.47;;;2.70;;
4214;SDS011;2121;48.062;7.850;2024-03-06T01:22:17;3.70;;;2.50;;
4214;SDS011;2121;48.062;7.850;2024-03-06T01:24:43;3.70;;;2.70;;
4214;SDS011;2121;48.062;7.850;2024-03-06T01:27:09;2.63;;;2.43;;
4214;SDS011;2121;48.062;7.850;2024-03-06T01:29:35;3.37;;;2.37;;
4214;SDS011;2121;48.062;7.850;2024-03-06T01:32:01;3.50;;;2.20;;
4214;SDS011;2121;48.062;7.850;2024-03-06T01:34:27;2.40;;;2.20;;
4214;SDS011;2121;48.062;7.850;2024-03-06T01:36:53;2.40;;;2.30;;
4214;SDS011;2121;48.062;7.850;2024-03-06T01:39:19;4.70;;;2.80;;
4214;SDS011;2121;48.062;7.850;2024-03-06T01:41:48;3.77;;;2.57;;
4214;SDS011;2121;48.062;7.850;2024-03-06T01:44:16;7.30;;;2.10;;
4214;SDS011;2121;48.062;7.850;2024-03-06T01:46:43;3.30;;;3.00;;
4214;SDS011;2121;48.062;7.850;2024-03-06T01:49:10;2.20;;;1.97;;
4214;SDS011;2121;48.062;7.850;2024-03-06T01:51:38;2.37;;;2.17;;
4214;SDS011;2121;48.062;7.850;2024-03-06T01:54:05;2.40;;;2.20;;
4214;SDS011;2121;48.062;7.850;2024-03-06T01:56:32;2.00;;;1.90;;
4214;SDS011;2121;48.062;7.850;2024-03-06T01:58:59;2.37;;;2.27;;
4214;SDS011;2121;48.062;7.850;2024-03-06T02:01:25;2.70;;;2.50;;
4214;SDS011;2121;48.062;7.850;2024-03-06T02:03:51;2.83;;;2.10;;
4214;SDS011;2121;48.062;7.850;2024-03-06T02:06:18;3.40;;;3.10;;
4214;SDS011;2121;48.062;7.850;2024-03-06T02:08:47;3.03;;;2.77;;
4214;SDS011;2121;48.062;7.850;2024-03-06T02:11:13;3.60;;;2.80;;
4214;SDS011;2121;48.062;7.850;2024-03-06T02:13:39;2.77;;;2.57;;
4214;SDS011;2121;48.062;7.850;2024-03-06T02:16:05;5.73;;;2.60;;
4214;SDS011;2121;48.062;7.850;2024-03-06T02:18:31;3.43;;;2.50;;
4214;SDS011;2121;48.062;7.850;2024-03-06T02:20:57;2.60;;;2.43;;
4214;SDS011;2121;48.062;7.850;2024-03-06T02:23:22;5.13;;;2.80;;
4214;SDS011;2121;48.062;7.850;2024-03-06T02:25:48;3.60;;;2.80;;
4214;SDS011;2121;48.062;7.850;2024-03-06T02:28:15;8.40;;;2.43;;
4214;SDS011;2121;48.062;7.850;2024-03-06T02:30:42;2.13;;;2.03;;
4214;SDS011;2121;48.062;7.850;2024-03-06T02:33:08;2.87;;;2.67;;
4214;SDS011;2121;48.062;7.850;2024-03-06T02:35:34;2.20;;;2.10;;
4214;SDS011;2121;48.062;7.850;2024-03-06T02:38:01;2.43;;;2.33;;
4214;SDS011;2121;48.062;7.850;2024-03-06T02:40:30;3.07;;;2.80;;
4214;SDS011;2121;48.062;7.850;2024-03-06T02:42:56;2.30;;;2.20;;
4214;SDS011;2121;48.062;7.850;2024-03-06T02:45:22;4.33;;;3.10;;
4214;SDS011;2121;48.062;7.850;2024-03-06T02:47:48;5.60;;;2.80;;
4214;SDS011;2121;48.062;7.850;2024-03-06T02:50:16;2.90;;;2.70;;
4214;SDS011;2121;48.062;7.850;2024-03-06T02:52:42;2.90;;;2.70;;
4214;SDS011;2121;48.062;7.850;2024-03-06T02:55:08;2.80;;;2.43;;
4214;SDS011;2121;48.062;7.850;2024-03-06T02:57:33;2.47;;;2.27;;
4214;SDS011;2121;48.062;7.850;2024-03-06T02:59:59;3.43;;;2.77;;
4214;SDS011;2121;48.062;7.850;2024-03-06T03:02:25;2.93;;;2.63;;
4214;SDS011;2121;48.062;7.850;2024-03-06T03:04:51;3.10;;;2.60;;
4214;SDS011;2121;48.062;7.850;2024-03-06T03:07:18;2.47;;;2.27;;
4214;SDS011;2121;48.062;7.850;2024-03-06T03:09:46;3.37;;;3.07;;
4214;SDS011;2121;48.062;7.850;2024-03-06T03:12:12;7.53;;;2.67;;
4214;SDS011;2121;48.062;7.850;2024-03-06T03:14:41;5.27;;;2.73;;
4214;SDS011;2121;48.062;7.850;2024-03-06T03:17:08;2.90;;;2.50;;
4214;SDS011;2121;48.062;7.850;2024-03-06T03:19:33;3.20;;;2.90;;
4214;SDS011;2121;48.062;7.850;2024-03-06T03:22:00;3.33;;;2.83;;
4214;SDS011;2121;48.062;7.850;2024-03-06T03:24:25;4.40;;;3.00;;
4214;SDS011;2121;48.062;7.850;2024-03-06T03:26:51;4.73;;;3.37;;
4214;SDS011;2121;48.062;7.850;2024-03-06T03:29:18;4.00;;;3.10;;
4214;SDS011;2121;48.062;7.850;2024-03-06T03:31:44;2.80;;;2.57;;
4214;SDS011;2121;48.062;7.850;2024-03-06T03:34:09;3.90;;;3.33;;
4214;SDS011;2121;48.062;7.850;2024-03-06T03:36:41;6.00;;;4.53;;
4214;SDS011;2121;48.062;7.850;2024-03-06T03:39:08;3.67;;;3.40;;
4214;SDS011;2121;48.062;7.850;2024-03-06T03:41:46;4.33;;;3.47;;
4214;SDS011;2121;48.062;7.850;2024-03-06T03:44:14;3.73;;;3.43;;
4214;SDS011;2121;48.062;7.850;2024-03-06T03:46:46;3.83;;;3.03;;
4214;SDS011;2121;48.062;7.850;2024-03-06T03:49:12;5.00;;;3.43;;
4214;SDS011;2121;48.062;7.850;2024-03-06T03:51:38;4.07;;;3.50;;
4214;SDS011;2121;48.062;7.850;2024-03-06T03:54:05;4.23;;;3.23;;
4214;SDS011;2121;48.062;7.850;2024-03-06T03:56:31;3.90;;;3.60;;
4214;SDS011;2121;48.062;7.850;2024-03-06T03:58:57;3.73;;;3.03;;
4214;SDS011;2121;48.062;7.850;2024-03-06T04:01:23;5.73;;;3.70;;
4214;SDS011;2121;48.062;7.850;2024-03-06T04:03:50;4.73;;;3.10;;
4214;SDS011;2121;48.062;7.850;2024-03-06T04:06:16;4.27;;;3.97;;
4214;SDS011;2121;48.062;7.850;2024-03-06T04:08:42;3.80;;;3.50;;
4214;SDS011;2121;48.062;7.850;2024-03-06T04:11:08;5.83;;;3.50;;
4214;SDS011;2121;48.062;7.850;2024-03-06T04:13:37;3.17;;;2.90;;
4214;SDS011;2121;48.062;7.850;2024-03-06T04:16:03;3.07;;;2.87;;
4214;SDS011;2121;48.062;7.850;2024-03-06T04:18:31;4.20;;;3.90;;
4214;SDS011;2121;48.062;7.850;2024-03-06T04:21:04;6.30;;;3.73;;
4214;SDS011;2121;48.062;7.850;2024-03-06T04:23:30;5.93;;;3.70;;
4214;SDS011;2121;48.062;7.850;2024-03-06T04:25:57;4.40;;;3.43;;
4214;SDS011;2121;48.062;7.850;2024-03-06T04:28:22;2.80;;;2.63;;
4214;SDS011;2121;48.062;7.850;2024-03-06T04:30:48;6.70;;;3.40;;
4214;SDS011;2121;48.062;7.850;2024-03-06T04:33:14;11.53;;;3.63;;
4214;SDS011;2121;48.062;7.850;2024-03-06T04:35:40;4.33;;;3.20;;
4214;SDS011;2121;48.062;7.850;2024-03-06T04:38:06;2.80;;;2.50;;
4214;SDS011;2121;48.062;7.850;2024-03-06T04:40:33;3.40;;;3.10;;
4214;SDS011;2121;48.062;7.850;2024-03-06T04:42:59;8.83;;;3.87;;
4214;SDS011;2121;48.062;7.850;2024-03-06T04:45:26;3.40;;;2.67;;
4214;SDS011;2121;48.062;7.850;2024-03-06T04:47:53;4.90;;;3.37;;
4214;SDS011;2121;48.062;7.850;2024-03-06T04:50:18;2.90;;;2.60;;
4214;SDS011;2121;48.062;7.850;2024-03-06T04:52:44;5.57;;;4.07;;
4214;SDS011;2121;48.062;7.850;2024-03-06T04:55:10;3.80;;;3.30;;
4214;SDS011;2121;48.062;7.850;2024-03-06T04:57:37;3.50;;;3.20;;
4214;SDS011;2121;48.062;7.850;2024-03-06T05:00:05;3.90;;;3.60;;
4214;SDS011;2121;48.062;7.850;2024-03-06T05:02:35;4.37;;;3.17;;
4214;SDS011;2121;48.062;7.850;2024-03-06T05:05:02;5.03;;;3.17;;
4214;SDS011;2121;48.062;7.850;2024-03-06T05:07:29;5.23;;;4.23;;
4214;SDS011;2121;48.062;7.850;2024-03-06T05:09:56;4.53;;;4.00;;
4214;SDS011;2121;48.062;7.850;2024-03-06T05:12:23;6.10;;;3.97;;
4214;SDS011;2121;48.062;7.850;2024-03-06T05:14:53;3.60;;;3.13;;
4214;SDS011;2121;48.062;7.850;2024-03-06T05:17:20;7.13;;;3.43;;
4214;SDS011;2121;48.062;7.850;2024-03-06T05:19:46;3.27;;;3.07;;
4214;SDS011;2121;48.062;7.850;2024-03-06T05:22:14;4.33;;;3.20;;
4214;SDS011;2121;48.062;7.850;2024-03-06T05:24:40;5.60;;;3.47;;
4214;SDS011;2121;48.062;7.850;2024-03-06T05:27:07;4.40;;;3.17;;
4214;SDS011;2121;48.062;7.850;2024-03-06T05:29:42;2.80;;;2.63;;
4214;SDS011;2121;48.062;7.850;2024-03-06T05:32:08;4.57;;;3.53;;
4214;SDS011;2121;48.062;7.850;2024-03-06T05:34:34;3.23;;;2.93;;
4214;SDS011;2121;48.062;7.850;2024-03-06T05:37:00;5.10;;;3.37;;
4214;SDS011;2121;48.062;7.850;2024-03-06T05:39:28;3.77;;;3.47;;
4214;SDS011;2121;48.062;7.850;2024-03-06T05:41:55;3.53;;;3.23;;
4214;SDS011;2121;48.062;7.850;2024-03-06T05:44:20;3.80;;;2.90;;
4214;SDS011;2121;48.062;7.850;2024-03-06T05:46:46;3.17;;;2.93;;
4214;SDS011;2121;48.062;7.850;2024-03-06T05:49:12;3.60;;;3.30;;
4214;SDS011;2121;48.062;7.850;2024-03-06T05:51:39;5.97;;;4.50;;
4214;SDS011;2121;48.062;7.850;2024-03-06T05:54:05;3.67;;;3.37;;
4214;SDS011;2121;48.062;7.850;2024-03-06T05:56:33;5.13;;;3.80;;
4214;SDS011;2121;48.062;7.850;2024-03-06T05:59:00;6.00;;;3.83;;
4214;SDS011;2121;48.062;7.850;2024-03-06T06:01:30;5.37;;;4.10;;
4214;SDS011;2121;48.062;7.850;2024-03-06T06:03:56;3.97;;;3.63;;
4214;SDS011;2121;48.062;7.850;2024-03-06T06:06:22;4.33;;;3.93;;
4214;SDS011;2121;48.062;7.850;2024-03-06T06:08:47;5.33;;;4.20;;
4214;SDS011;2121;48.062;7.850;2024-03-06T06:11:13;3.73;;;3.13;;
4214;SDS011;2121;48.062;7.850;2024-03-06T06:13:39;5.13;;;4.40;;
4214;SDS011;2121;48.062;7.850;2024-03-06T06:16:05;6.17;;;4.30;;
4214;SDS011;2121;48.062;7.850;2024-03-06T06:18:31;9.50;;;4.80;;
4214;SDS011;2121;48.062;7.850;2024-03-06T06:20:57;9.07;;;3.83;;
4214;SDS011;2121;48.062;7.850;2024-03-06T06:23:23;5.20;;;3.60;;
4214;SDS011;2121;48.062;7.850;2024-03-06T06:25:50;5.90;;;3.17;;
4214;SDS011;2121;48.062;7.850;2024-03-06T06:28:16;4.07;;;3.50;;
4214;SDS011;2121;48.062;7.850;2024-03-06T06:30:42;3.07;;;2.77;;
4214;SDS011;2121;48.062;7.850;2024-03-06T06:33:08;4.93;;;4.03;;
4214;SDS011;2121;48.062;7.850;2024-03-06T06:35:34;5.77;;;4.37;;
4214;SDS011;2121;48.062;7.850;2024-03-06T06:38:00;12.17;;;8.83;;
4214;SDS011;2121;48.062;7.850;2024-03-06T06:40:27;11.30;;;7.40;;
4214;SDS011;2121;48.062;7.850;2024-03-06T06:42:53;5.83;;;5.00;;
4214;SDS011;2121;48.062;7.850;2024-03-06T06:45:19;8.00;;;5.47;;
4214;SDS011;2121;48.062;7.850;2024-03-06T06:47:48;6.73;;;5.07;;
4214;SDS011;2121;48.062;7.850;2024-03-06T06:50:16;5.10;;;4.60;;
4214;SDS011;2121;48.062;7.850;2024-03-06T06:52:42;4.40;;;4.00;;
4214;SDS011;2121;48.062;7.850;2024-03-06T06:55:08;5.83;;;4.07;;
4214;SDS011;2121;48.062;7.850;2024-03-06T06:57:36;5.50;;;3.93;;
4214;SDS011;2121;48.062;7.850;2024-03-06T07:00:03;3.27;;;3.07;;
4214;SDS011;2121;48.062;7.850;2024-03-06T07:02:44;3.90;;;3.40;;
4214;SDS011;2121;48.062;7.850;2024-03-06T07:05:10;3.53;;;3.30;;
4214;SDS011;2121;48.062;7.850;2024-03-06T07:07:37;4.43;;;4.03;;
4214;SDS011;2121;48.062;7.850;2024-03-06T07:10:03;4.70;;;4.30;;
4214;SDS011;2121;48.062;7.850;2024-03-06T07:12:30;3.50;;;3.20;;
4214;SDS011;2121;48.062;7.850;2024-03-06T07:14:57;5.73;;;4.17;;
4214;SDS011;2121;48.062;7.850;2024-03-06T07:17:24;8.80;;;5.63;;
4214;SDS011;2121;48.062;7.850;2024-03-06T07:19:50;4.50;;;3.83;;
4214;SDS011;2121;48.062;7.850;2024-03-06T07:22:17;4.37;;;3.97;;
4214;SDS011;2121;48.062;7.850;2024-03-06T07:24:44;3.50;;;3.20;;
4214;SDS011;2121;48.062;7.850;2024-03-06T07:27:10;3.10;;;2.90;;
4214;SDS011;2121;48.062;7.850;2024-03-06T07:29:36;3.17;;;2.97;;
4214;SDS011;2121;48.062;7.850;2024-03-06T07:32:02;7.27;;;4.43;;
4214;SDS011;2121;48.062;7.850;2024-03-06T07:34:30;3.30;;;2.60;;
4214;SDS011;2121;48.062;7.850;2024-03-06T07:36:56;2.27;;;1.90;;
4214;SDS011;2121;48.062;7.850;2024-03-06T07:39:24;2.47;;;2.27;;
4214;SDS011;2121;48.062;7.850;2024-03-06T07:41:50;3.80;;;2.20;;
4214;SDS011;2121;48.062;7.850;2024-03-06T07:44:16;5.57;;;2.57;;
4214;SDS011;2121;48.062;7.850;2024-03-06T07:46:42;2.30;;;2.03;;
4214;SDS011;2121;48.062;7.850;2024-03-06T07:49:08;2.87;;;2.63;;
4214;SDS011;2121;48.062;7.850;2024-03-06T07:51:34;2.10;;;2.00;;
4214;SDS011;2121;48.062;7.850;2024-03-06T07:54:00;6.00;;;2.20;;
4214;SDS011;2121;48.062;7.850;2024-03-06T07:56:29;2.90;;;2.60;;
4214;SDS011;2121;48.062;7.850;2024-03-06T07:58:55;2.83;;;2.27;;
4214;SDS011;2121;48.062;7.850;2024-03-06T08:01:21;2.50;;;2.20;;
4214;SDS011;2121;48.062;7.850;2024-03-06T08:03:48;2.07;;;1.97;;
4214;SDS011;2121;48.062;7.850;2024-03-06T08:06:14;2.10;;;2.00;;
4214;SDS011;2121;48.062;7.850;2024-03-06T08:08:43;2.27;;;2.17;;
4214;SDS011;2121;48.062;7.850;2024-03-06T08:11:12;2.20;;;2.10;;
4214;SDS011;2121;48.062;7.850;2024-03-06T08:13:39;6.17;;;2.30;;
4214;SDS011;2121;48.062;7.850;2024-03-06T08:16:05;3.90;;;1.87;;
4214;SDS011;2121;48.062;7.850;2024-03-06T08:18:32;4.77;;;2.20;;
4214;SDS011;2121;48.062;7.850;2024-03-06T08:20:59;2.27;;;1.90;;
4214;SDS011;2121;48.062;7.850;2024-03-06T08:23:26;2.33;;;1.80;;
4214;SDS011;2121;48.062;7.850;2024-03-06T08:25:52;1.70;;;1.60;;
4214;SDS011;2121;48.062;7.850;2024-03-06T08:28:18;2.70;;;1.90;;
4214;SDS011;2121;48.062;7.850;2024-03-06T08:30:44;2.00;;;1.80;;
4214;SDS011;2121;48.062;7.850;2024-03-06T08:33:10;2.70;;;2.50;;
4214;SDS011;2121;48.062;7.850;2024-03-06T08:35:36;3.30;;;1.83;;
4214;SDS011;2121;48.062;7.850;2024-03-06T08:38:02;1.80;;;1.70;;
4214;SDS011;2121;48.062;7.850;2024-03-06T08:40:29;2.10;;;2.00;;
4214;SDS011;2121;48.062;7.850;2024-03-06T08:42:55;1.70;;;1.60;;
4214;SDS011;2121;48.062;7.850;2024-03-06T08:45:21;2.40;;;2.20;;
4214;SDS011;2121;48.062;7.850;2024-03-06T08:47:48;2.27;;;2.10;;
4214;SDS011;2121;48.062;7.850;2024-03-06T08:50:14;2.10;;;2.00;;
4214;SDS011;2121;48.062;7.850;2024-03-06T08:52:41;1.70;;;1.60;;
4214;SDS011;2121;48.062;7.850;2024-03-06T08:55:07;2.10;;;2.00;;
4214;SDS011;2121;48.062;7.850;2024-03-06T08:57:36;1.83;;;1.73;;
4214;SDS011;2121;48.062;7.850;2024-03-06T09:00:03;2.10;;;2.00;;
4214;SDS011;2121;48.062;7.850;2024-03-06T09:02:35;2.40;;;2.20;;
4214;SDS011;2121;48.062;7.850;2024-03-06T09:05:04;2.50;;;2.40;;
4214;SDS011;2121;48.062;7.850;2024-03-06T09:07:35;2.30;;;2.03;;
4214;SDS011;2121;48.062;7.850;2024-03-06T09:10:09;2.10;;;2.00;;
4214;SDS011;2121;48.062;7.850;2024-03-06T09:12:36;1.77;;;1.67;;
4214;SDS011;2121;48.062;7.850;2024-03-06T09:15:02;2.10;;;2.00;;
4214;SDS011;2121;48.062;7.850;2024-03-06T09:17:29;2.03;;;1.93;;
4214;SDS011;2121;48.062;7.850;2024-03-06T09:19:55;2.13;;;1.93;;
4214;SDS011;2121;48.062;7.850;2024-03-06T09:22:21;2.53;;;2.43;;
4214;SDS011;2121;48.062;7.850;2024-03-06T09:24:47;1.87;;;1.77;;
4214;SDS011;2121;48.062;7.850;2024-03-06T09:27:14;1.90;;;1.80;;
4214;SDS011;2121;48.062;7.850;2024-03-06T09:29:41;2.00;;;1.90;;
4214;SDS011;2121;48.062;7.850;2024-03-06T09:32:07;1.80;;;1.70;;
4214;SDS011;2121;48.062;7.850;2024-03-06T09:34:33;1.70;;;1.60;;
4214;SDS011;2121;48.062;7.850;2024-03-06T09:36:58;1.67;;;1.57;;
4214;SDS011;2121;48.062;7.850;2024-03-06T09:39:24;2.33;;;2.13;;
4214;SDS011;2121;48.062;7.850;2024-03-06T09:41:50;1.90;;;1.80;;
4214;SDS011;2121;48.062;7.850;2024-03-06T09:44:17;2.40;;;2.30;;
4214;SDS011;2121;48.062;7.850;2024-03-06T09:46:44;1.70;;;1.60;;
4214;SDS011;2121;48.062;7.850;2024-03-06T09:49:13;2.50;;;2.40;;
4214;SDS011;2121;48.062;7.850;2024-03-06T09:51:47;2.63;;;2.43;;
4214;SDS011;2121;48.062;7.850;2024-03-06T09:54:15;3.33;;;2.70;;
4214;SDS011;2121;48.062;7.850;2024-03-06T09:56:45;3.17;;;2.63;;
4214;SDS011;2121;48.062;7.850;2024-03-06T09:59:14;2.23;;;2.13;;
4214;SDS011;2121;48.062;7.850;2024-03-06T10:01:50;2.93;;;2.57;;
4214;SDS011;2121;48.062;7.850;2024-03-06T10:04:21;5.13;;;2.90;;
4214;SDS011;2121;48.062;7.850;2024-03-06T10:06:48;3.13;;;2.53;;
4214;SDS011;2121;48.062;7.850;2024-03-06T10:09:18;3.33;;;2.47;;
4214;SDS011;2121;48.062;7.850;2024-03-06T10:11:44;3.23;;;2.07;;
4214;SDS011;2121;48.062;7.850;2024-03-06T10:14:10;5.73;;;3.23;;
4214;SDS011;2121;48.062;7.850;2024-03-06T10:16:37;3.67;;;2.23;;
4214;SDS011;2121;48.062;7.850;2024-03-06T10:19:21;3.33;;;1.73;;
4214;SDS011;2121;48.062;7.850;2024-03-06T10:21:49;2.50;;;2.03;;
4214;SDS011;2121;48.062;7.850;2024-03-06T10:24:19;5.07;;;1.90;;
4214;SDS011;2121;48.062;7.850;2024-03-06T10:26:48;2.90;;;1.87;;
4214;SDS011;2121;48.062;7.850;2024-03-06T10:29:19;2.67;;;1.57;;
4214;SDS011;2121;48.062;7.850;2024-03-06T10:31:47;1.87;;;1.77;;
4214;SDS011;2121;48.062;7.850;2024-03-06T10:36:42;8.03;;;2.13;;
4214;SDS011;2121;48.062;7.850;2024-03-06T10:39:08;2.30;;;1.67;;
4214;SDS011;2121;48.062;7.850;2024-03-06T10:41:40;6.10;;;1.67;;
4214;SDS011;2121;48.062;7.850;2024-03-06T10:44:11;7.80;;;1.90;;
4214;SDS011;2121;48.062;7.850;2024-03-06T10:46:42;1.90;;;1.53;;
4214;SDS011;2121;48.062;7.850;2024-03-06T10:49:12;1.50;;;1.40;;
4214;SDS011;2121;48.062;7.850;2024-03-06T10:51:42;1.40;;;1.40;;
4214;SDS011;2121;48.062;7.850;2024-03-06T10:54:11;2.30;;;1.90;;
4214;SDS011;2121;48.062;7.850;2024-03-06T10:56:39;2.33;;;2.10;;
4214;SDS011;2121;48.062;7.850;2024-03-06T10:59:11;2.30;;;2.10;;
4214;SDS011;2121;48.062;7.850;2024-03-06T11:01:39;4.40;;;2.27;;
4214;SDS011;2121;48.062;7.850;2024-03-06T11:04:06;2.23;;;1.93;;
4214;SDS011;2121;48.062;7.850;2024-03-06T11:06:33;2.07;;;1.97;;
4214;SDS011;2121;48.062;7.850;2024-03-06T11:09:00;2.00;;;1.80;;
4214;SDS011;2121;48.062;7.850;2024-03-06T11:11:28;1.93;;;1.83;;
4214;SDS011;2121;48.062;7.850;2024-03-06T11:14:01;2.30;;;1.77;;
4214;SDS011;2121;48.062;7.850;2024-03-06T11:16:30;2.27;;;2.07;;
4214;SDS011;2121;48.062;7.850;2024-03-06T11:19:08;1.87;;;1.77;;
4214;SDS011;2121;48.062;7.850;2024-03-06T11:21:34;2.03;;;1.80;;
4214;SDS011;2121;48.062;7.850;2024-03-06T11:24:14;1.43;;;1.33;;
4214;SDS011;2121;48.062;7.850;2024-03-06T11:32:29;2.13;;;1.90;;
4214;SDS011;2121;48.062;7.850;2024-03-06T11:34:54;2.10;;;1.90;;
4214;SDS011;2121;48.062;7.850;2024-03-06T11:37:20;2.30;;;1.43;;
4214;SDS011;2121;48.062;7.850;2024-03-06T11:39:47;2.30;;;1.60;;
4214;SDS011;2121;48.062;7.850;2024-03-06T11:42:13;2.00;;;1.70;;
4214;SDS011;2121;48.062;7.850;2024-03-06T11:44:52;3.13;;;1.90;;
4214;SDS011;2121;48.062;7.850;2024-03-06T11:47:20;1.90;;;1.30;;
4214;SDS011;2121;48.062;7.850;2024-03-06T11:49:45;3.30;;;1.70;;
4214;SDS011;2121;48.062;7.850;2024-03-06T11:52:11;1.60;;;1.50;;
4214;SDS011;2121;48.062;7.850;2024-03-06T11:54:37;2.60;;;1.60;;
4214;SDS011;2121;48.062;7.850;2024-03-06T11:57:03;2.03;;;1.50;;
4214;SDS011;2121;48.062;7.850;2024-03-06T11:59:34;4.13;;;1.80;;
4214;SDS011;2121;48.062;7.850;2024-03-06T12:02:04;1.83;;;1.40;;
4214;SDS011;2121;48.062;7.850;2024-03-06T12:04:31;3.93;;;1.67;;
4214;SDS011;2121;48.062;7.850;2024-03-06T12:06:59;2.70;;;1.70;;
4214;SDS011;2121;48.062;7.850;2024-03-06T12:09:33;1.60;;;1.50;;
4214;SDS011;2121;48.062;7.850;2024-03-06T12:12:00;1.80;;;1.70;;
4214;SDS011;2121;48.062;7.850;2024-03-06T12:14:25;3.80;;;1.67;;
4214;SDS011;2121;48.062;7.850;2024-03-06T12:19:27;2.03;;;1.50;;
4214;SDS011;2121;48.062;7.850;2024-03-06T12:21:59;3.30;;;1.37;;
4214;SDS011;2121;48.062;7.850;2024-03-06T12:24:25;2.20;;;1.80;;
4214;SDS011;2121;48.062;7.850;2024-03-06T12:27:04;1.57;;;1.47;;
4214;SDS011;2121;48.062;7.850;2024-03-06T12:29:32;1.83;;;1.50;;
4214;SDS011;2121;48.062;7.850;2024-03-06T12:32:00;2.70;;;1.43;;
4214;SDS011;2121;48.062;7.850;2024-03-06T12:34:27;1.50;;;1.40;;
4214;SDS011;2121;48.062;7.850;2024-03-06T12:36:55;2.23;;;1.77;;
4214;SDS011;2121;48.062;7.850;2024-03-06T12:39:21;3.03;;;1.73;;
4214;SDS011;2121;48.062;7.850;2024-03-06T12:41:49;3.47;;;1.73;;
4214;SDS011;2121;48.062;7.850;2024-03-06T12:44:16;1.70;;;1.60;;
4214;SDS011;2121;48.062;7.850;2024-03-06T12:46:42;1.20;;;1.20;;
4214;SDS011;2121;48.062;7.850;2024-03-06T12:49:08;1.43;;;1.33;;
4214;SDS011;2121;48.062;7.850;2024-03-06T12:51:33;2.20;;;1.57;;
4214;SDS011;2121;48.062;7.850;2024-03-06T12:53:59;5.30;;;1.63;;
4214;SDS011;2121;48.062;7.850;2024-03-06T12:56:26;4.70;;;1.90;;
4214;SDS011;2121;48.062;7.850;2024-03-06T12:58:52;2.50;;;1.77;;
4214;SDS011;2121;48.062;7.850;2024-03-06T13:01:17;2.83;;;1.67;;
4214;SDS011;2121;48.062;7.850;2024-03-06T13:03:44;3.03;;;2.10;;
4214;SDS011;2121;48.062;7.850;2024-03-06T13:06:10;2.03;;;1.93;;
4214;SDS011;2121;48.062;7.850;2024-03-06T13:08:36;2.00;;;1.80;;
4214;SDS011;2121;48.062;7.850;2024-03-06T13:11:02;3.27;;;1.90;;
4214;SDS011;2121;48.062;7.850;2024-03-06T13:13:28;2.33;;;2.13;;
4214;SDS011;2121;48.062;7.850;2024-03-06T13:15:55;1.60;;;1.50;;
4214;SDS011;2121;48.062;7.850;2024-03-06T13:18:21;2.60;;;1.80;;
4214;SDS011;2121;48.062;7.850;2024-03-06T13:20:47;1.93;;;1.77;;
4214;SDS011;2121;48.062;7.850;2024-03-06T13:23:13;2.73;;;2.17;;
4214;SDS011;2121;48.062;7.850;2024-03-06T13:25:38;4.33;;;2.37;;
4214;SDS011;2121;48.062;7.850;2024-03-06T13:28:05;2.40;;;2.20;;
4214;SDS011;2121;48.062;7.850;2024-03-06T13:30:31;3.63;;;2.00;;
4214;SDS011;2121;48.062;7.850;2024-03-06T13:32:57;3.00;;;2.40;;
4214;SDS011;2121;48.062;7.850;2024-03-06T13:35:23;10.20;;;3.00;;
4214;SDS011;2121;48.062;7.850;2024-03-06T13:37:49;2.30;;;2.17;;
4214;SDS011;2121;48.062;7.850;2024-03-06T13:40:15;6.83;;;2.50;;
4214;SDS011;2121;48.062;7.850;2024-03-06T13:42:41;2.40;;;2.20;;
4214;SDS011;2121;48.062;7.850;2024-03-06T13:45:08;2.37;;;2.27;;
4214;SDS011;2121;48.062;7.850;2024-03-06T13:47:37;2.57;;;2.20;;
4214;SDS011;2121;48.062;7.850;2024-03-06T13:50:10;4.00;;;2.67;;
4214;SDS011;2121;48.062;7.850;2024-03-06T13:52:38;2.33;;;2.23;;
4214;SDS011;2121;48.062;7.850;2024-03-06T13:55:05;4.30;;;2.20;;
4214;SDS011;2121;48.062;7.850;2024-03-06T13:57:33;3.07;;;2.57;;
4214;SDS011;2121;48.062;7.850;2024-03-06T14:00:03;3.20;;;2.10;;
4214;SDS011;2121;48.062;7.850;2024-03-06T14:02:32;3.50;;;2.17;;
4214;SDS011;2121;48.062;7.850;2024-03-06T14:04:57;1.93;;;1.80;;
4214;SDS011;2121;48.062;7.850;2024-03-06T14:07:23;2.23;;;2.03;;
4214;SDS011;2121;48.062;7.850;2024-03-06T14:09:52;3.07;;;2.63;;
4214;SDS011;2121;48.062;7.850;2024-03-06T14:12:17;7.20;;;3.63;;
4214;SDS011;2121;48.062;7.850;2024-03-06T14:14:43;1.90;;;1.63;;
4214;SDS011;2121;48.062;7.850;2024-03-06T14:17:12;1.60;;;1.50;;
4214;SDS011;2121;48.062;7.850;2024-03-06T14:19:38;2.13;;;1.93;;
4214;SDS011;2121;48.062;7.850;2024-03-06T14:22:08;3.90;;;2.30;;
4214;SDS011;2121;48.062;7.850;2024-03-06T14:24:34;6.10;;;2.30;;
4214;SDS011;2121;48.062;7.850;2024-03-06T14:27:00;2.30;;;2.20;;
4214;SDS011;2121;48.062;7.850;2024-03-06T14:29:27;9.70;;;7.47;;
4214;SDS011;2121;48.062;7.850;2024-03-06T14:31:54;6.20;;;5.57;;
4214;SDS011;2121;48.062;7.850;2024-03-06T14:34:20;3.03;;;2.53;;
4214;SDS011;2121;48.062;7.850;2024-03-06T14:36:48;2.70;;;1.80;;
4214;SDS011;2121;48.062;7.850;2024-03-06T14:39:16;3.60;;;1.97;;
4214;SDS011;2121;48.062;7.850;2024-03-06T14:41:42;10.53;;;2.33;;
4214;SDS011;2121;48.062;7.850;2024-03-06T14:44:09;8.27;;;2.47;;
4214;SDS011;2121;48.062;7.850;2024-03-06T14:46:35;2.40;;;1.90;;
4214;SDS011;2121;48.062;7.850;2024-03-06T14:49:01;3.20;;;2.07;;
4214;SDS011;2121;48.062;7.850;2024-03-06T14:51:27;3.20;;;2.90;;
4214;SDS011;2121;48.062;7.850;2024-03-06T14:53:53;3.20;;;3.00;;
4214;SDS011;2121;48.062;7.850;2024-03-06T14:56:19;3.03;;;2.80;;
4214;SDS011;2121;48.062;7.850;2024-03-06T14:58:46;4.80;;;2.73;;
4214;SDS011;2121;48.062;7.850;2024-03-06T15:01:13;2.90;;;2.70;;
4214;SDS011;2121;48.062;7.850;2024-03-06T15:03:39;4.13;;;2.83;;
4214;SDS011;2121;48.062;7.850;2024-03-06T15:06:07;4.03;;;3.20;;
4214;SDS011;2121;48.062;7.850;2024-03-06T15:08:33;8.40;;;3.13;;
4214;SDS011;2121;48.062;7.850;2024-03-06T15:11:02;7.80;;;3.30;;
4214;SDS011;2121;48.062;7.850;2024-03-06T15:13:28;3.57;;;3.23;;
4214;SDS011;2121;48.062;7.850;2024-03-06T15:15:54;5.63;;;4.70;;
4214;SDS011;2121;48.062;7.850;2024-03-06T15:18:19;3.17;;;2.83;;
4214;SDS011;2121;48.062;7.850;2024-03-06T15:20:45;2.80;;;2.60;;
4214;SDS011;2121;48.062;7.850;2024-03-06T15:23:11;3.27;;;2.97;;
4214;SDS011;2121;48.062;7.850;2024-03-06T15:25:37;3.53;;;3.23;;